Time;durP1;ratioP1;P1;durP2;ratioP2;P2;SDS_P1;SDS_P2;PMS_P1;PMS_P2;Temp;Humidity;BMP_temperature;BMP_pressure;BME280_temperature;BME280_humidity;BME280_pressure;Samples;Min_cycle;Max_cycle;Signal;HPM_P1;HPM_P2
2022/07/30 00:00:08;;;;;;;7.22;4.82;;;;;;;16.45;98.32;100892.75;688603;28;1096;-46
2022/07/30 00:00:29;;;;;;;6.55;4.78;;;;;;;16.42;98.59;100895.47;688700;28;1102;-44
2022/07/30 00:00:49;;;;;;;7.55;4.80;;;;;;;16.41;98.69;100890.22;689832;28;1036;-45
2022/07/30 00:01:10;;;;;;;6.23;4.67;;;;;;;16.48;96.97;100895.28;688867;28;4227;-46
2022/07/30 00:01:30;;;;;;;5.77;4.40;;;;;;;16.51;96.85;100891.72;688017;28;1914;-44
2022/07/30 00:01:51;;;;;;;5.70;4.30;;;;;;;16.49;97.59;100890.88;689137;28;1257;-44
2022/07/30 00:02:11;;;;;;;5.38;4.40;;;;;;;16.44;97.64;100885.72;687983;28;1230;-44
2022/07/30 00:02:32;;;;;;;6.88;4.90;;;;;;;16.45;97.31;100891.88;688660;28;1297;-44
2022/07/30 00:02:53;;;;;;;7.87;4.77;;;;;;;16.50;96.51;100895.25;687907;28;1551;-42
2022/07/30 00:03:13;;;;;;;6.28;4.57;;;;;;;16.57;96.00;100890.69;687978;28;976;-41
2022/07/30 00:03:33;;;;;;;6.50;4.63;;;;;;;16.56;96.33;100892.47;689366;28;1261;-41
2022/07/30 00:03:54;;;;;;;5.80;4.70;;;;;;;16.51;97.26;100895.22;690493;28;4352;-41
2022/07/30 00:04:16;;;;;;;5.95;4.70;;;;;;;16.50;96.89;100890.84;690269;28;1135;-41
2022/07/30 00:04:36;;;;;;;5.70;4.50;;;;;;;16.49;97.19;100889.13;690694;28;1178;-42
2022/07/30 00:04:56;;;;;;;6.33;4.50;;;;;;;16.46;97.89;100883.03;688093;28;1587;-43
2022/07/30 00:05:17;;;;;;;6.68;4.70;;;;;;;16.48;96.23;100891.81;688915;28;1044;-41
2022/07/30 00:05:37;;;;;;;7.80;5.00;;;;;;;16.44;97.89;100882.22;689652;28;1120;-42
2022/07/30 00:05:58;;;;;;;6.78;4.75;;;;;;;16.33;99.09;100893.06;689953;28;1247;-42
2022/07/30 00:06:18;;;;;;;6.70;4.80;;;;;;;16.27;98.85;100891.44;689781;28;1157;-41
2022/07/30 00:06:38;;;;;;;7.33;5.10;;;;;;;16.27;98.77;100891.44;688896;28;1491;-45
2022/07/30 00:06:59;;;;;;;7.32;5.10;;;;;;;16.29;98.75;100891.41;688690;28;4336;-44
2022/07/30 00:07:19;;;;;;;5.95;4.80;;;;;;;16.32;99.12;100891.31;689825;28;1128;-44
2022/07/30 00:07:40;;;;;;;7.00;5.00;;;;;;;16.34;99.33;100889.50;689023;28;966;-46
2022/07/30 00:08:00;;;;;;;8.23;5.00;;;;;;;16.30;99.67;100887.84;688612;28;1690;-44
2022/07/30 00:08:22;;;;;;;6.68;5.03;;;;;;;16.23;99.92;100895.06;688786;28;1393;-44
2022/07/30 00:08:42;;;;;;;7.00;4.95;;;;;;;16.20;100.00;100892.50;690283;28;994;-45
2022/07/30 00:09:03;;;;;;;6.50;4.97;;;;;;;16.19;100.00;100889.91;689716;28;1277;-44
2022/07/30 00:09:23;;;;;;;6.32;4.95;;;;;;;16.21;99.38;100891.56;685197;28;1301;-44
2022/07/30 00:09:44;;;;;;;6.30;4.90;;;;;;;16.30;98.85;100890.50;684985;28;1229;-44
2022/07/30 00:10:05;;;;;;;5.17;4.43;;;;;;;16.31;98.13;100885.19;683721;28;4443;-44
2022/07/30 00:10:25;;;;;;;5.50;4.30;;;;;;;16.30;98.36;100893.13;686306;28;1183;-44
2022/07/30 00:10:45;;;;;;;6.80;4.88;;;;;;;16.37;97.31;100889.44;683517;28;1057;-45
2022/07/30 00:11:06;;;;;;;6.77;4.80;;;;;;;16.43;97.33;100888.41;683326;28;1052;-45
2022/07/30 00:11:26;;;;;;;6.82;4.82;;;;;;;16.46;96.70;100891.84;685991;28;1115;-44
2022/07/30 00:11:47;;;;;;;6.47;4.50;;;;;;;16.44;97.25;100892.78;685563;28;1016;-47
2022/07/30 00:12:07;;;;;;;6.75;4.60;;;;;;;16.45;96.91;100891.88;685933;28;1136;-44
2022/07/30 00:12:28;;;;;;;6.77;4.63;;;;;;;16.46;96.55;100889.19;685566;28;1115;-44
2022/07/30 00:12:49;;;;;;;6.53;4.53;;;;;;;16.46;96.38;100886.56;688849;28;1096;-44
2022/07/30 00:13:09;;;;;;;6.35;4.57;;;;;;;16.48;96.40;100886.53;689140;28;4346;-44
2022/07/30 00:13:30;;;;;;;6.20;4.60;;;;;;;16.49;96.61;100885.59;691522;28;1035;-44
2022/07/30 00:13:50;;;;;;;6.05;4.63;;;;;;;16.48;96.82;100890.00;691491;28;1162;-44
2022/07/30 00:14:11;;;;;;;5.57;4.80;;;;;;;16.50;95.69;100888.22;689155;28;1348;-44
2022/07/30 00:14:33;;;;;;;6.32;4.50;;;;;;;16.53;95.46;100887.25;688501;28;1236;-44
2022/07/30 00:14:54;;;;;;;7.45;4.60;;;;;;;16.55;95.68;100890.72;689104;28;1095;-44
2022/07/30 00:15:14;;;;;;;6.80;4.80;;;;;;;16.56;96.48;100899.50;688244;28;1220;-44
2022/07/30 00:15:34;;;;;;;6.50;4.70;;;;;;;16.53;97.48;100895.16;688067;28;1119;-45
2022/07/30 00:15:55;;;;;;;7.15;4.88;;;;;;;16.44;97.94;100891.00;688787;28;4469;-44
2022/07/30 00:16:15;;;;;;;6.97;4.87;;;;;;;16.33;99.22;100888.63;688583;28;3660;-44
2022/07/30 00:16:36;;;;;;;6.40;4.97;;;;;;;16.31;98.68;100884.28;688156;28;1067;-44
2022/07/30 00:16:56;;;;;;;6.60;4.97;;;;;;;16.31;98.34;100886.94;688418;28;1107;-45
2022/07/30 00:17:17;;;;;;;7.28;5.10;;;;;;;16.29;98.91;100886.97;688695;28;1103;-44
2022/07/30 00:17:37;;;;;;;7.30;5.20;;;;;;;16.29;99.10;100892.25;688291;28;1134;-43
2022/07/30 00:17:57;;;;;;;6.57;5.00;;;;;;;16.28;99.53;100890.53;687308;28;1119;-44
2022/07/30 00:18:18;;;;;;;7.17;4.73;;;;;;;16.21;100.00;100888.06;687447;28;1110;-45
2022/07/30 00:18:38;;;;;;;5.73;4.87;;;;;;;16.14;100.00;100887.34;685476;28;1195;-44
2022/07/30 00:18:59;;;;;;;6.63;5.10;;;;;;;16.12;99.60;100890.03;687849;28;4565;-44
2022/07/30 00:19:19;;;;;;;6.63;4.70;;;;;;;16.14;98.98;100888.25;688590;28;1428;-44
2022/07/30 00:19:39;;;;;;;6.25;4.63;;;;;;;16.18;98.26;100886.38;687837;28;1020;-44
2022/07/30 00:20:00;;;;;;;6.53;4.80;;;;;;;16.21;99.21;100890.72;687924;28;1001;-44
2022/07/30 00:20:21;;;;;;;5.95;4.80;;;;;;;16.18;99.78;100889.00;688883;28;1292;-44
2022/07/30 00:20:41;;;;;;;6.10;4.77;;;;;;;16.10;100.00;100888.31;690880;28;1590;-44
2022/07/30 00:21:01;;;;;;;6.80;5.10;;;;;;;16.02;100.00;100892.91;690653;28;1122;-44
2022/07/30 00:21:22;;;;;;;7.23;4.90;;;;;;;15.94;100.00;100878.16;690793;28;1043;-44
2022/07/30 00:21:42;;;;;;;7.38;5.07;;;;;;;15.88;100.00;100887.97;691600;28;1914;-45
2022/07/30 00:22:03;;;;;;;7.23;5.10;;;;;;;15.83;100.00;100883.66;690167;28;4620;-45
2022/07/30 00:22:23;;;;;;;6.70;5.30;;;;;;;15.80;100.00;100883.75;691328;28;971;-45
2022/07/30 00:22:43;;;;;;;7.27;5.10;;;;;;;15.79;100.00;100882.00;688405;28;1249;-46
2022/07/30 00:23:04;;;;;;;6.75;4.75;;;;;;;15.82;100.00;100878.44;688256;28;1064;-44
2022/07/30 00:23:24;;;;;;;6.50;4.80;;;;;;;15.88;100.00;100880.94;690869;28;1115;-44
2022/07/30 00:23:45;;;;;;;6.68;4.85;;;;;;;15.89;100.00;100880.03;691525;28;1056;-45
2022/07/30 00:24:07;;;;;;;7.27;4.90;;;;;;;15.88;100.00;100880.06;690863;28;1024;-44
2022/07/30 00:24:28;;;;;;;7.80;5.22;;;;;;;15.88;100.00;100880.94;691628;28;1084;-45
2022/07/30 00:24:48;;;;;;;6.75;4.68;;;;;;;15.94;99.83;100882.56;691051;28;1062;-46
2022/07/30 00:25:08;;;;;;;6.13;4.80;;;;;;;16.03;98.81;100881.47;689539;28;4531;-44
2022/07/30 00:25:29;;;;;;;6.25;4.80;;;;;;;16.09;99.63;100884.84;689341;28;1321;-45
2022/07/30 00:25:50;;;;;;;5.50;4.80;;;;;;;16.07;100.00;100880.50;689155;28;1198;-45
2022/07/30 00:26:10;;;;;;;6.17;5.00;;;;;;;15.95;100.00;100885.16;688570;28;1429;-45
2022/07/30 00:26:31;;;;;;;6.65;5.22;;;;;;;15.84;100.00;100879.28;689814;28;1116;-45
2022/07/30 00:26:51;;;;;;;7.93;5.40;;;;;;;15.75;100.00;100882.09;688320;28;1158;-44
2022/07/30 00:27:13;;;;;;;7.97;5.28;;;;;;;15.68;100.00;100881.34;688249;28;1013;-45
2022/07/30 00:27:34;;;;;;;7.20;5.03;;;;;;;15.63;100.00;100878.84;687740;28;1153;-46
2022/07/30 00:27:55;;;;;;;5.97;4.77;;;;;;;15.66;100.00;100876.13;685601;28;4393;-44
2022/07/30 00:28:15;;;;;;;7.07;4.80;;;;;;;15.66;100.00;100878.75;688591;28;1004;-45
2022/07/30 00:28:35;;;;;;;8.20;5.07;;;;;;;15.70;100.00;100878.69;689341;28;1016;-44
2022/07/30 00:28:56;;;;;;;7.30;4.90;;;;;;;15.75;100.00;100876.81;687891;28;1144;-44
2022/07/30 00:29:16;;;;;;;6.43;4.78;;;;;;;15.78;100.00;100874.09;685211;28;1409;-44
2022/07/30 00:29:37;;;;;;;7.13;4.83;;;;;;;15.79;100.00;100875.84;686531;28;1160;-44
2022/07/30 00:29:57;;;;;;;5.90;4.50;;;;;;;15.87;100.00;100873.94;689248;28;1171;-46
2022/07/30 00:30:17;;;;;;;6.43;4.70;;;;;;;15.96;100.00;100875.47;688742;28;1044;-44
2022/07/30 00:30:39;;;;;;;6.67;4.77;;;;;;;15.97;100.00;100875.44;689318;28;1140;-46
2022/07/30 00:31:00;;;;;;;8.45;5.25;;;;;;;16.03;100.00;100881.47;685638;28;4283;-44
2022/07/30 00:31:20;;;;;;;6.82;4.90;;;;;;;16.03;99.90;100874.41;685372;28;1363;-44
2022/07/30 00:31:41;;;;;;;6.77;4.70;;;;;;;16.03;100.00;100878.84;686722;28;1230;-44
2022/07/30 00:32:02;;;;;;;6.35;4.50;;;;;;;16.00;100.00;100880.66;682469;28;1252;-44
2022/07/30 00:32:22;;;;;;;6.82;4.90;;;;;;;15.98;99.96;100877.19;682615;28;1204;-44
2022/07/30 00:32:42;;;;;;;8.20;4.80;;;;;;;16.00;100.00;100872.75;683965;28;1038;-45
2022/07/30 00:33:03;;;;;;;6.63;4.80;;;;;;;16.04;98.80;100880.59;685433;28;1247;-44
2022/07/30 00:33:23;;;;;;;6.67;4.70;;;;;;;16.09;99.02;100876.03;688713;28;1009;-45
2022/07/30 00:33:44;;;;;;;6.68;4.85;;;;;;;16.11;98.54;100879.53;688986;28;1183;-45
2022/07/30 00:34:04;;;;;;;6.60;4.63;;;;;;;16.13;98.89;100878.59;688608;28;4588;-44
2022/07/30 00:34:25;;;;;;;7.22;4.93;;;;;;;16.12;99.62;100878.63;689147;28;1287;-44
2022/07/30 00:34:45;;;;;;;7.20;5.20;;;;;;;16.09;99.61;100870.75;688266;28;1195;-44
2022/07/30 00:35:06;;;;;;;6.82;4.93;;;;;;;16.11;99.48;100874.25;685362;28;1176;-45
2022/07/30 00:35:27;;;;;;;6.63;4.88;;;;;;;16.12;98.39;100881.25;682539;28;1968;-47
2022/07/30 00:35:47;;;;;;;7.33;5.10;;;;;;;16.14;98.46;100879.44;683504;28;1175;-44
2022/07/30 00:36:07;;;;;;;7.00;4.63;;;;;;;16.12;98.99;100878.63;682185;28;1350;-45
2022/07/30 00:36:28;;;;;;;6.23;4.87;;;;;;;16.14;98.38;100882.06;681011;28;1152;-45
2022/07/30 00:36:48;;;;;;;6.72;4.90;;;;;;;16.16;99.24;100869.75;679988;28;1291;-44
2022/07/30 00:37:09;;;;;;;7.53;4.80;;;;;;;16.05;100.00;100872.63;682990;28;4339;-44
2022/07/30 00:37:30;;;;;;;7.63;4.68;;;;;;;15.95;100.00;100877.25;682875;28;1194;-44
2022/07/30 00:37:50;;;;;;;7.03;5.07;;;;;;;15.90;100.00;100873.84;683282;28;1382;-44
2022/07/30 00:38:10;;;;;;;6.82;5.03;;;;;;;15.90;100.00;100878.28;684865;28;1073;-46
2022/07/30 00:38:31;;;;;;;6.45;4.80;;;;;;;15.96;100.00;100879.00;686442;28;1211;-44
2022/07/30 00:38:52;;;;;;;6.63;4.90;;;;;;;15.91;100.00;100872.97;688015;28;4766;-45
2022/07/30 00:39:12;;;;;;;6.60;5.10;;;;;;;15.91;100.00;100878.22;688357;28;1233;-44
2022/07/30 00:39:33;;;;;;;6.47;5.27;;;;;;;15.93;100.00;100876.41;688525;28;1292;-44
2022/07/30 00:39:53;;;;;;;7.00;4.78;;;;;;;15.93;100.00;100875.56;687445;28;4736;-44
2022/07/30 00:40:13;;;;;;;6.57;4.70;;;;;;;15.91;99.79;100872.97;687922;28;1050;-44
2022/07/30 00:40:34;;;;;;;7.85;4.85;;;;;;;15.90;100.00;100879.13;684357;28;1489;-44
2022/07/30 00:40:54;;;;;;;6.93;4.90;;;;;;;15.88;99.98;100878.31;684909;28;972;-43
2022/07/30 00:41:15;;;;;;;7.13;4.82;;;;;;;15.88;99.67;100880.06;686691;28;1109;-44
2022/07/30 00:41:52;;;;;;;6.78;4.68;;;;;;;15.88;100.00;100875.69;685584;28;1922;-45
2022/07/30 00:42:13;;;;;;;7.50;4.60;;;;;;;15.85;100.00;100881.00;688355;28;1477;-44
2022/07/30 00:42:38;;;;;;;6.75;5.03;;;;;;;15.79;100.00;100876.75;687549;28;1152;-46
2022/07/30 00:42:58;;;;;;;7.20;5.35;;;;;;;15.74;100.00;100875.97;688102;28;4380;-44
2022/07/30 00:43:19;;;;;;;7.35;5.03;;;;;;;15.65;100.00;100877.03;686640;28;1228;-44
2022/07/30 00:43:39;;;;;;;6.13;5.10;;;;;;;15.57;100.00;100876.31;685076;28;1283;-45
2022/07/30 00:44:00;;;;;;;6.05;5.28;;;;;;;15.55;100.00;100880.78;686679;28;1059;-45
2022/07/30 00:44:20;;;;;;;7.43;5.23;;;;;;;15.55;100.00;100879.88;684854;28;1129;-46
2022/07/30 00:44:40;;;;;;;7.65;5.15;;;;;;;15.57;100.00;100870.19;687162;28;1331;-46
2022/07/30 00:45:01;;;;;;;6.07;4.80;;;;;;;15.58;100.00;100877.22;686586;28;1119;-44
2022/07/30 00:45:21;;;;;;;7.50;5.10;;;;;;;15.58;100.00;100872.78;684178;28;1258;-45
2022/07/30 00:45:43;;;;;;;6.68;5.07;;;;;;;15.60;100.00;100880.66;680391;28;1192;-44
2022/07/30 00:46:04;;;;;;;6.65;4.90;;;;;;;15.61;100.00;100870.09;678070;28;4520;-44
2022/07/30 00:46:25;;;;;;;6.15;4.95;;;;;;;15.66;100.00;100873.50;682833;28;1135;-44
2022/07/30 00:46:46;;;;;;;5.97;4.95;;;;;;;15.75;100.00;100874.19;683242;28;1179;-45
2022/07/30 00:47:06;;;;;;;6.93;5.30;;;;;;;15.77;100.00;100877.63;681959;28;1188;-44
2022/07/30 00:47:26;;;;;;;6.75;4.95;;;;;;;15.82;100.00;100873.16;682044;28;1076;-44
2022/07/30 00:47:47;;;;;;;6.53;4.63;;;;;;;15.85;100.00;100886.28;683875;28;1084;-44
2022/07/30 00:48:07;;;;;;;7.00;4.80;;;;;;;15.90;99.55;100873.84;681039;28;1206;-44
2022/07/30 00:48:27;;;;;;;7.53;4.80;;;;;;;15.97;100.00;100875.44;681639;28;904;-46
2022/07/30 00:48:48;;;;;;;5.97;4.83;;;;;;;15.99;100.00;100875.41;688032;28;1083;-46
2022/07/30 00:49:09;;;;;;;6.97;4.82;;;;;;;16.00;100.00;100875.38;686001;28;4583;-45
2022/07/30 00:49:29;;;;;;;6.85;4.80;;;;;;;15.96;100.00;100865.81;689755;28;1184;-45
2022/07/30 00:49:49;;;;;;;6.50;4.90;;;;;;;15.98;99.81;100871.91;689823;28;1253;-44
2022/07/30 00:50:12;;;;;;;7.10;5.10;;;;;;;15.92;100.00;100874.69;686373;28;1150;-46
2022/07/30 00:50:33;;;;;;;7.53;4.88;;;;;;;15.88;100.00;100875.69;687758;28;1227;-45
2022/07/30 00:50:53;;;;;;;6.13;4.50;;;;;;;15.83;100.00;100874.91;689908;28;1326;-44
2022/07/30 00:51:14;;;;;;;7.07;4.40;;;;;;;15.82;100.00;100874.06;688301;28;1390;-46
2022/07/30 00:51:34;;;;;;;6.57;4.40;;;;;;;15.86;99.91;100872.19;687758;28;997;-45
2022/07/30 00:51:55;;;;;;;8.20;4.80;;;;;;;15.83;100.00;100875.75;688550;28;4437;-46
2022/07/30 00:52:15;;;;;;;7.70;5.10;;;;;;;15.82;100.00;100876.69;687556;28;1176;-45
2022/07/30 00:52:39;;;;;;;7.70;5.33;;;;;;;15.77;100.00;100877.63;688698;28;1004;-44
2022/07/30 00:52:59;;;;;;;6.30;5.10;;;;;;;15.68;100.00;100876.09;688578;28;1354;-45
2022/07/30 00:53:20;;;;;;;6.40;5.00;;;;;;;15.60;100.00;100875.38;690299;28;1493;-44
2022/07/30 00:53:40;;;;;;;7.80;5.10;;;;;;;15.50;100.00;100874.72;688938;28;980;-44
2022/07/30 00:54:01;;;;;;;7.65;5.00;;;;;;;15.47;100.00;100877.44;688789;28;1067;-44
2022/07/30 00:54:21;;;;;;;9.07;5.37;;;;;;;15.41;100.00;100877.56;691437;28;1290;-47
2022/07/30 00:54:41;;;;;;;8.95;5.53;;;;;;;15.32;100.00;100879.47;688022;28;1286;-44
2022/07/30 00:55:04;;;;;;;7.03;4.97;;;;;;;15.33;100.00;100872.47;685497;28;4389;-44
2022/07/30 00:55:24;;;;;;;7.65;5.30;;;;;;;15.33;100.00;100875.97;686467;28;1146;-44
2022/07/30 00:55:45;;;;;;;6.13;4.93;;;;;;;15.32;100.00;100874.22;683106;28;1282;-45
2022/07/30 00:56:05;;;;;;;6.90;4.72;;;;;;;15.36;100.00;100876.81;683018;28;1103;-46
2022/07/30 00:56:26;;;;;;;7.47;5.10;;;;;;;15.34;100.00;100879.47;680257;28;1151;-45
2022/07/30 00:56:47;;;;;;;8.52;5.32;;;;;;;15.30;100.00;100878.66;685527;28;1049;-44
2022/07/30 00:57:08;;;;;;;8.02;5.18;;;;;;;15.39;100.00;100882.00;686677;28;1133;-44
2022/07/30 00:57:28;;;;;;;6.50;5.00;;;;;;;15.41;100.00;100881.06;687808;28;1056;-45
2022/07/30 00:57:48;;;;;;;7.73;4.90;;;;;;;15.45;100.00;100876.59;688155;28;1099;-44
2022/07/30 00:58:09;;;;;;;8.50;5.10;;;;;;;15.57;100.00;100867.56;684849;28;4442;-45
2022/07/30 00:58:29;;;;;;;6.80;5.07;;;;;;;15.68;100.00;100873.44;688080;28;1629;-45
2022/07/30 00:58:50;;;;;;;7.30;4.90;;;;;;;15.73;100.00;100879.50;685614;28;1614;-45
2022/07/30 00:59:10;;;;;;;6.88;4.78;;;;;;;15.67;100.00;100874.34;687045;28;1066;-44
2022/07/30 00:59:31;;;;;;;6.83;4.67;;;;;;;15.68;100.00;100873.44;685948;28;1115;-46
2022/07/30 00:59:51;;;;;;;6.53;4.85;;;;;;;15.70;100.00;100876.06;686340;28;1123;-45
2022/07/30 01:00:15;;;;;;;6.40;4.80;;;;;;;15.68;100.00;100877.88;689534;28;1061;-45
2022/07/30 01:00:35;;;;;;;7.38;5.00;;;;;;;15.66;100.00;100875.28;684956;28;1171;-44
2022/07/30 01:00:55;;;;;;;6.63;4.93;;;;;;;15.61;100.00;100878.00;686128;28;4389;-45
2022/07/30 01:01:17;;;;;;;7.18;5.10;;;;;;;15.59;100.00;100869.28;686408;28;1127;-45
2022/07/30 01:01:37;;;;;;;6.93;5.10;;;;;;;15.65;100.00;100878.78;683742;28;1938;-44
2022/07/30 01:02:00;;;;;;;7.75;5.07;;;;;;;15.58;100.00;100872.78;683509;28;1157;-53
2022/07/30 01:02:20;;;;;;;7.35;5.50;;;;;;;15.52;100.00;100874.69;683761;28;1056;-46
2022/07/30 01:02:41;;;;;;;6.32;4.95;;;;;;;15.53;100.00;100873.81;686980;28;1277;-44
2022/07/30 01:03:01;;;;;;;6.67;5.13;;;;;;;15.58;100.00;100872.78;683376;28;1143;-47
2022/07/30 01:03:22;;;;;;;6.93;5.00;;;;;;;15.63;100.00;100864.78;686068;28;1250;-45
2022/07/30 01:03:42;;;;;;;7.28;5.10;;;;;;;15.57;100.00;100881.59;686167;28;1128;-44
2022/07/30 01:04:03;;;;;;;6.70;4.90;;;;;;;15.56;100.00;100869.34;684613;28;4442;-45
2022/07/30 01:04:24;;;;;;;6.72;4.88;;;;;;;15.58;100.00;100869.31;682865;28;895;-46
2022/07/30 01:04:44;;;;;;;6.72;4.90;;;;;;;15.54;100.00;100871.13;681267;28;1809;-44
2022/07/30 01:05:05;;;;;;;6.27;4.90;;;;;;;15.50;100.00;100875.59;682692;28;1146;-45
2022/07/30 01:05:26;;;;;;;6.00;4.97;;;;;;;15.47;100.00;100869.53;682806;28;1100;-45
2022/07/30 01:05:48;;;;;;;6.50;5.05;;;;;;;15.45;100.00;100871.31;683650;28;1060;-45
2022/07/30 01:06:08;;;;;;;6.80;5.18;;;;;;;15.40;100.00;100875.84;685877;28;1025;-48
2022/07/30 01:06:29;;;;;;;7.07;5.10;;;;;;;15.43;100.00;100879.25;688755;28;1368;-44
2022/07/30 01:06:49;;;;;;;7.78;5.20;;;;;;;15.41;100.00;100873.16;689067;28;1083;-45
2022/07/30 01:07:10;;;;;;;7.00;5.40;;;;;;;15.44;100.00;100874.88;687794;28;4594;-45
2022/07/30 01:07:30;;;;;;;7.13;5.00;;;;;;;15.50;100.00;100874.72;685964;28;1056;-45
2022/07/30 01:07:51;;;;;;;6.53;5.10;;;;;;;15.54;100.00;100881.66;686847;28;1230;-44
2022/07/30 01:08:11;;;;;;;7.60;5.32;;;;;;;15.54;100.00;100875.53;686067;28;1176;-44
2022/07/30 01:08:31;;;;;;;9.43;5.43;;;;;;;15.50;100.00;100874.72;680133;28;1333;-44
2022/07/30 01:08:53;;;;;;;8.02;5.53;;;;;;;15.44;100.00;100875.72;683333;28;1024;-47
2022/07/30 01:09:13;;;;;;;8.30;5.38;;;;;;;15.44;100.00;100875.72;685069;28;2060;-44
2022/07/30 01:09:33;;;;;;;7.73;5.10;;;;;;;15.52;100.00;100878.22;689086;28;1634;-45
2022/07/30 01:09:54;;;;;;;7.82;5.20;;;;;;;15.59;100.00;100879.81;686442;28;4412;-45
2022/07/30 01:10:14;;;;;;;6.67;5.13;;;;;;;15.55;100.00;100883.41;686071;28;1843;-44
2022/07/30 01:10:35;;;;;;;7.47;5.63;;;;;;;15.49;100.00;100879.16;686518;28;1327;-44
2022/07/30 01:10:55;;;;;;;7.53;5.10;;;;;;;15.46;100.00;100884.44;686505;28;1075;-44
2022/07/30 01:11:16;;;;;;;6.53;4.93;;;;;;;15.45;100.00;100881.84;685961;28;1103;-46
2022/07/30 01:11:39;;;;;;;7.00;5.28;;;;;;;15.41;100.00;100880.19;686415;28;1087;-44
2022/07/30 01:12:01;;;;;;;7.60;5.53;;;;;;;15.38;100.00;100883.78;688907;28;1139;-45
2022/07/30 01:12:24;;;;;;;7.53;5.35;;;;;;;15.35;100.00;100882.97;686484;28;999;-44
2022/07/30 01:12:45;;;;;;;6.88;5.43;;;;;;;15.35;100.00;100882.97;688340;28;4141;-46
2022/07/30 01:13:06;;;;;;;8.65;5.38;;;;;;;15.37;100.00;100878.50;685220;28;4569;-44
2022/07/30 01:13:27;;;;;;;6.63;5.30;;;;;;;15.41;100.00;100877.56;686110;28;1277;-45
2022/07/30 01:13:47;;;;;;;7.32;5.63;;;;;;;15.42;100.00;100881.94;685609;28;1241;-44
2022/07/30 01:14:08;;;;;;;8.40;5.50;;;;;;;15.36;100.00;100876.81;685813;28;1077;-46
2022/07/30 01:14:28;;;;;;;9.60;5.47;;;;;;;15.33;100.00;100881.22;688410;28;1019;-44
2022/07/30 01:14:49;;;;;;;6.63;5.03;;;;;;;15.37;100.00;100882.03;690001;28;1040;-44
2022/07/30 01:15:10;;;;;;;6.47;5.23;;;;;;;15.32;100.00;100879.47;690063;28;1017;-45
2022/07/30 01:15:31;;;;;;;7.80;5.30;;;;;;;15.29;100.00;100882.19;690987;28;1031;-44
2022/07/30 01:15:51;;;;;;;7.90;5.30;;;;;;;15.29;100.00;100879.56;690184;28;4380;-45
2022/07/30 01:16:13;;;;;;;6.57;5.10;;;;;;;15.31;100.00;100888.31;692203;28;1364;-45
2022/07/30 01:16:35;;;;;;;7.55;5.20;;;;;;;15.38;100.00;100880.25;688634;28;1188;-44
2022/07/30 01:16:56;;;;;;;8.75;5.20;;;;;;;15.39;100.00;100882.00;689359;28;1005;-45
2022/07/30 01:17:17;;;;;;;7.00;4.90;;;;;;;15.40;100.00;100878.47;683440;28;1129;-46
2022/07/30 01:17:38;;;;;;;7.13;5.00;;;;;;;15.37;100.00;100878.50;682328;28;1156;-46
2022/07/30 01:18:02;;;;;;;7.03;4.72;;;;;;;15.37;100.00;100881.16;681253;28;995;-46
2022/07/30 01:19:47;;;;;;;8.05;4.95;;;;;;;15.37;100.00;100878.50;682850;28;1246;-44
2022/07/30 01:20:07;;;;;;;7.18;5.13;;;;;;;15.41;100.00;100877.56;689732;28;1207;-47
2022/07/30 01:20:32;;;;;;;6.45;5.28;;;;;;;15.44;100.00;100878.38;687999;28;1198;-46
2022/07/30 01:21:06;;;;;;;7.80;5.10;;;;;;;15.42;100.00;100879.28;687775;28;1630;-45
2022/07/30 01:21:40;;;;;;;6.63;4.80;;;;;;;15.40;100.00;100878.47;683994;28;1915;-45
2022/07/30 01:22:25;;;;;;;6.75;4.78;;;;;;;15.47;100.00;100875.66;683008;28;4366;-44
2022/07/30 01:23:05;;;;;;;6.88;4.80;;;;;;;15.53;99.90;100877.28;684509;28;1056;-44
2022/07/30 01:23:34;;;;;;;7.70;5.20;;;;;;;15.60;100.00;100875.38;686112;28;1446;-45
2022/07/30 01:24:00;;;;;;;7.35;5.18;;;;;;;15.65;99.62;100871.75;689259;28;1248;-44
2022/07/30 01:24:51;;;;;;;7.88;5.03;;;;;;;15.63;100.00;100880.59;691212;28;991;-45
2022/07/30 01:25:44;;;;;;;7.32;5.00;;;;;;;15.55;99.95;100878.13;689709;28;6368;-45
2022/07/30 01:26:08;;;;;;;7.03;5.20;;;;;;;15.48;100.00;100876.53;688215;28;1338;-45
2022/07/30 01:26:30;;;;;;;7.40;5.00;;;;;;;15.50;99.59;100883.50;688743;28;1154;-44
2022/07/30 01:26:51;;;;;;;7.55;4.97;;;;;;;15.47;100.00;100882.72;688575;28;1138;-45
2022/07/30 01:27:13;;;;;;;7.20;4.97;;;;;;;15.45;99.90;100877.47;690477;28;1081;-46
2022/07/30 01:27:57;;;;;;;7.13;4.90;;;;;;;15.46;100.00;100873.91;691056;28;1220;-44
2022/07/30 01:28:22;;;;;;;6.53;5.35;;;;;;;15.44;100.00;100874.88;688080;28;6145;-44
2022/07/30 01:28:47;;;;;;;9.43;5.22;;;;;;;15.45;99.96;100876.59;688281;28;1257;-45
2022/07/30 01:29:09;;;;;;;6.85;5.00;;;;;;;15.39;100.00;100877.59;686526;28;1782;-45
2022/07/30 01:29:31;;;;;;;6.85;5.30;;;;;;;15.42;100.00;100881.94;683669;28;1668;-44
2022/07/30 01:29:53;;;;;;;6.35;5.20;;;;;;;15.36;100.00;100877.66;683190;28;1286;-46
2022/07/30 01:30:19;;;;;;;7.13;5.03;;;;;;;15.28;100.00;100877.81;685560;28;1292;-44
2022/07/30 01:30:42;;;;;;;7.90;5.15;;;;;;;15.27;100.00;100881.38;683317;28;1423;-44
2022/07/30 01:31:05;;;;;;;7.60;5.25;;;;;;;15.27;100.00;100878.72;685644;28;4338;-45
2022/07/30 01:31:27;;;;;;;6.45;5.30;;;;;;;15.20;100.00;100882.38;684940;28;1474;-45
2022/07/30 01:31:49;;;;;;;7.18;5.50;;;;;;;15.18;100.00;100880.69;685012;28;1283;-44
2022/07/30 01:32:12;;;;;;;7.07;5.28;;;;;;;15.20;100.00;100874.47;687800;28;1432;-44
2022/07/30 01:32:35;;;;;;;8.30;5.30;;;;;;;15.21;100.00;100873.56;684970;28;1402;-45
2022/07/30 01:32:57;;;;;;;8.07;5.25;;;;;;;15.22;100.00;100877.94;687555;28;2169;-45
2022/07/30 01:33:20;;;;;;;9.63;5.60;;;;;;;15.20;100.00;100876.25;687682;28;935;-44
2022/07/30 01:33:45;;;;;;;7.30;5.20;;;;;;;15.20;100.00;100881.50;686540;28;1354;-46
2022/07/30 01:34:05;;;;;;;7.03;5.15;;;;;;;15.17;100.00;100879.81;686435;28;4487;-44
2022/07/30 01:34:31;;;;;;;6.80;5.10;;;;;;;15.14;100.00;100877.25;685193;28;1218;-44
2022/07/30 01:34:55;;;;;;;7.90;5.03;;;;;;;15.12;100.00;100876.41;685562;28;1249;-43
2022/07/30 01:35:19;;;;;;;8.23;5.25;;;;;;;15.08;100.00;100874.75;685530;28;1227;-46
2022/07/30 01:35:41;;;;;;;7.35;5.45;;;;;;;15.04;100.00;100873.06;680541;28;1437;-44
2022/07/30 01:36:03;;;;;;;7.40;5.45;;;;;;;14.98;100.00;100879.28;681230;28;1448;-46
2022/07/30 01:36:25;;;;;;;8.00;5.50;;;;;;;15.01;100.00;100875.75;679405;28;1355;-44
2022/07/30 01:36:46;;;;;;;7.68;5.40;;;;;;;15.10;100.00;100879.06;681521;28;1057;-44
2022/07/30 01:37:09;;;;;;;6.70;5.10;;;;;;;15.20;100.00;100876.25;680303;28;4441;-44
2022/07/30 01:37:32;;;;;;;6.63;5.25;;;;;;;15.19;100.00;100875.38;678282;28;1339;-44
2022/07/30 01:37:55;;;;;;;6.88;5.40;;;;;;;15.15;100.00;100884.25;677614;28;1708;-44
2022/07/30 01:38:20;;;;;;;7.25;5.68;;;;;;;15.07;100.00;100875.63;681170;28;1233;-44
2022/07/30 01:38:44;;;;;;;7.25;5.68;;;;;;;14.98;100.00;100879.28;686909;28;1451;-44
2022/07/30 01:39:05;;;;;;;7.30;5.72;;;;;;;14.90;100.00;100883.88;684699;28;1118;-44
2022/07/30 01:39:26;;;;;;;7.63;5.70;;;;;;;14.82;100.00;100881.38;687092;28;1363;-46
2022/07/30 01:39:48;;;;;;;8.27;5.60;;;;;;;14.75;100.00;100880.63;686533;28;1681;-45
2022/07/30 01:40:11;;;;;;;7.93;5.57;;;;;;;14.73;100.00;100885.06;684923;28;4549;-44
2022/07/30 01:40:34;;;;;;;7.13;5.57;;;;;;;14.82;100.00;100881.38;682947;28;1274;-44
2022/07/30 01:40:55;;;;;;;7.30;5.60;;;;;;;14.88;100.00;100888.28;684776;28;1516;-46
2022/07/30 01:41:18;;;;;;;7.07;5.60;;;;;;;14.95;100.00;100882.88;685098;28;1429;-46
2022/07/30 01:41:41;;;;;;;7.45;5.60;;;;;;;15.00;100.00;100880.16;683629;28;1998;-44
2022/07/30 01:42:04;;;;;;;7.22;5.35;;;;;;;15.04;100.00;100880.97;682866;28;1375;-45
2022/07/30 01:42:27;;;;;;;6.78;5.57;;;;;;;15.04;100.00;100880.97;681357;28;1014;-47
2022/07/30 01:42:53;;;;;;;7.65;5.82;;;;;;;14.97;100.00;100883.69;680129;28;1311;-44
2022/07/30 01:43:16;;;;;;;7.00;5.25;;;;;;;14.98;100.00;100884.56;683487;28;5045;-45
2022/07/30 01:43:40;;;;;;;7.55;5.15;;;;;;;15.02;100.00;100885.38;683556;28;1329;-44
2022/07/30 01:44:02;;;;;;;7.80;5.20;;;;;;;15.09;100.00;100879.09;681645;28;1151;-44